createdAt,value
2024-04-21T00:01:26.364Z,10.40
2024-04-21T00:03:57.004Z,9.50
2024-04-21T00:06:29.084Z,10.70
2024-04-21T00:09:00.058Z,13.00
2024-04-21T00:11:31.809Z,15.90
2024-04-21T00:14:02.610Z,8.70
2024-04-21T00:16:34.521Z,8.20
2024-04-21T00:19:05.016Z,9.10
2024-04-21T00:21:36.479Z,14.60
2024-04-21T00:24:07.201Z,8.80
2024-04-21T00:26:38.858Z,8.00
2024-04-21T00:29:09.373Z,7.70
2024-04-21T00:31:41.548Z,10.60
2024-04-21T00:34:12.510Z,10.20
2024-04-21T00:36:44.895Z,8.40
2024-04-21T00:39:15.269Z,9.70
2024-04-21T00:41:47.233Z,14.00
2024-04-21T00:44:17.667Z,11.90
2024-04-21T00:46:49.383Z,11.00
2024-04-21T00:49:19.950Z,9.30
2024-04-21T00:51:51.739Z,8.40
2024-04-21T00:54:22.541Z,10.60
2024-04-21T00:56:54.401Z,10.90
2024-04-21T00:59:24.839Z,9.30
2024-04-21T01:01:56.923Z,10.10
2024-04-21T01:04:27.407Z,10.80
2024-04-21T01:06:59.197Z,12.00
2024-04-21T01:09:29.814Z,14.10
2024-04-21T01:12:01.628Z,16.10
2024-04-21T01:14:32.095Z,18.10
2024-04-21T01:17:04.644Z,14.60
2024-04-21T01:19:35.103Z,22.60
2024-04-21T01:22:07.318Z,20.40
2024-04-21T01:24:37.795Z,24.30
2024-04-21T01:27:09.557Z,20.90
2024-04-21T01:29:40.087Z,49.00
2024-04-21T01:32:23.647Z,20.30
2024-04-21T01:34:55.466Z,17.40
2024-04-21T01:37:25.899Z,38.60
2024-04-21T01:39:57.986Z,29.70
2024-04-21T01:42:28.593Z,78.20
2024-04-21T01:45:00.556Z,69.40
2024-04-21T01:47:30.992Z,42.50
2024-04-21T01:50:02.767Z,36.50
2024-04-21T01:52:33.275Z,65.30
2024-04-21T01:55:05.373Z,28.70
2024-04-21T01:57:37.267Z,29.10
2024-04-21T02:00:09.363Z,24.00
2024-04-21T02:02:47.300Z,26.90
2024-04-21T02:05:17.815Z,36.80
2024-04-21T02:07:49.339Z,17.50
2024-04-21T02:10:19.972Z,12.30
2024-04-21T02:12:51.756Z,12.70
2024-04-21T02:15:22.172Z,19.70
2024-04-21T02:17:53.952Z,13.50
2024-04-21T02:20:24.754Z,16.20
2024-04-21T02:22:56.403Z,10.70
2024-04-21T02:25:27.617Z,18.40
2024-04-21T02:27:59.934Z,12.20
2024-04-21T02:30:30.668Z,15.60
2024-04-21T02:33:03.270Z,10.20
2024-04-21T02:35:33.774Z,11.40
2024-04-21T02:38:05.517Z,12.40
2024-04-21T02:40:36.149Z,11.40
2024-04-21T02:43:08.126Z,13.00
2024-04-21T02:45:38.758Z,11.00
2024-04-21T02:48:10.510Z,12.30
2024-04-21T02:50:40.715Z,12.80
2024-04-21T02:53:12.684Z,10.60
2024-04-21T02:55:46.693Z,10.00
2024-04-21T02:58:19.152Z,11.40
2024-04-21T03:00:49.580Z,11.00
2024-04-21T03:03:21.537Z,10.50
2024-04-21T03:05:56.707Z,11.10
2024-04-21T03:08:28.655Z,10.90
2024-04-21T03:10:59.261Z,12.70
2024-04-21T03:13:31.082Z,11.50
2024-04-21T03:16:05.578Z,10.70
2024-04-21T03:18:37.421Z,12.90
2024-04-21T03:21:07.856Z,11.60
2024-04-21T03:23:39.908Z,11.30
2024-04-21T03:26:10.332Z,10.50
2024-04-21T03:28:42.006Z,11.60
2024-04-21T03:31:12.556Z,11.80
2024-04-21T03:33:44.176Z,10.20
2024-04-21T03:36:14.707Z,10.70
2024-04-21T03:38:46.570Z,10.00
2024-04-21T03:41:17.083Z,10.00
2024-04-21T03:43:49.252Z,9.70
2024-04-21T03:46:23.179Z,11.00
2024-04-21T03:48:56.595Z,12.10
2024-04-21T03:51:26.996Z,10.80
2024-04-21T03:53:58.753Z,10.70
2024-04-21T03:56:29.069Z,10.70
2024-04-21T03:59:00.824Z,10.60
2024-04-21T04:01:31.419Z,18.70
2024-04-21T04:04:04.192Z,12.90
2024-04-21T04:06:34.671Z,23.40
2024-04-21T04:09:06.549Z,24.90
2024-04-21T04:11:37.437Z,20.10
2024-04-21T04:14:09.224Z,39.90
2024-04-21T04:16:39.749Z,49.20
2024-04-21T04:19:11.669Z,46.30
2024-04-21T04:21:41.932Z,30.70
2024-04-21T04:24:13.796Z,39.80
2024-04-21T04:26:44.232Z,35.70
2024-04-21T04:29:15.801Z,22.40
2024-04-21T04:31:45.990Z,94.00
2024-04-21T04:34:17.859Z,31.80
2024-04-21T04:36:48.685Z,18.80
2024-04-21T04:39:20.758Z,19.90
2024-04-21T04:41:51.290Z,95.20
2024-04-21T04:44:22.936Z,19.70
2024-04-21T04:46:53.370Z,58.70
2024-04-21T04:49:25.198Z,17.00
2024-04-21T04:51:55.777Z,27.30
2024-04-21T04:54:27.518Z,13.10
2024-04-21T04:56:58.247Z,17.10
2024-04-21T04:59:30.106Z,12.90
2024-04-21T05:02:00.589Z,12.50
2024-04-21T05:04:32.863Z,11.10
2024-04-21T05:07:03.350Z,12.10
2024-04-21T05:09:35.396Z,10.50
2024-04-21T05:12:06.239Z,14.70
2024-04-21T05:14:38.047Z,10.90
2024-04-21T05:17:08.553Z,12.30
2024-04-21T05:19:40.576Z,13.60
2024-04-21T05:22:11.030Z,25.30
2024-04-21T05:24:42.985Z,13.90
2024-04-21T05:27:14.976Z,14.20
2024-04-21T05:29:48.118Z,12.70
2024-04-21T05:32:18.610Z,10.90
2024-04-21T05:34:50.320Z,24.60
2024-04-21T05:37:20.768Z,62.00
2024-04-21T05:39:52.634Z,21.50
2024-04-21T05:42:23.118Z,13.30
2024-04-21T05:44:54.672Z,28.00
2024-04-21T05:47:25.133Z,14.60
2024-04-21T05:49:56.957Z,15.80
2024-04-21T05:52:27.447Z,14.10
2024-04-21T05:54:59.191Z,17.20
2024-04-21T05:57:29.676Z,11.40
2024-04-21T06:00:01.963Z,11.50
2024-04-21T06:02:37.078Z,11.10
2024-04-21T06:05:07.747Z,11.30
2024-04-21T06:07:39.461Z,13.30
2024-04-21T06:10:10.371Z,17.30
2024-04-21T06:12:42.366Z,40.10
2024-04-21T06:15:12.688Z,28.20
2024-04-21T06:17:44.514Z,40.00
2024-04-21T06:20:15.173Z,22.60
2024-04-21T06:22:46.934Z,11.30
2024-04-21T06:25:17.418Z,17.10
2024-04-21T06:27:49.267Z,10.80
2024-04-21T06:30:19.850Z,11.80
2024-04-21T06:32:52.072Z,22.20
2024-04-21T06:35:22.444Z,39.50
2024-04-21T06:37:54.205Z,17.10
2024-04-21T06:40:24.885Z,25.00
2024-04-21T06:42:57.131Z,16.80
2024-04-21T06:45:28.045Z,14.80
2024-04-21T06:47:59.859Z,12.30
2024-04-21T06:50:33.579Z,17.40
2024-04-21T06:53:06.159Z,7.50
2024-04-21T06:55:36.611Z,11.10
2024-04-21T06:58:08.816Z,10.00
2024-04-21T07:00:40.942Z,10.40
2024-04-21T07:03:13.116Z,8.80
2024-04-21T07:05:43.633Z,9.80
2024-04-21T07:08:15.404Z,10.60
2024-04-21T07:10:45.946Z,10.60
2024-04-21T07:13:17.807Z,11.10
2024-04-21T07:15:48.249Z,15.80
2024-04-21T07:18:20.068Z,8.80
2024-04-21T07:20:50.700Z,10.10
2024-04-21T07:23:22.357Z,12.20
2024-04-21T07:25:53.254Z,8.20
2024-04-21T07:28:25.645Z,9.90
2024-04-21T07:30:56.130Z,8.00
2024-04-21T07:33:27.742Z,9.20
2024-04-21T07:35:58.165Z,10.50
2024-04-21T07:38:29.823Z,6.60
2024-04-21T07:41:00.356Z,6.80
2024-04-21T07:43:32.106Z,9.60
2024-04-21T07:46:03.625Z,11.50
2024-04-21T07:48:35.350Z,21.20
2024-04-21T07:51:05.846Z,8.20
2024-04-21T07:53:37.402Z,13.80
2024-04-21T07:56:08.029Z,9.10
2024-04-21T07:58:39.796Z,8.20
2024-04-21T08:01:10.430Z,6.90
2024-04-21T08:03:42.196Z,5.50
2024-04-21T08:06:13.005Z,6.90
2024-04-21T08:08:46.891Z,7.50
2024-04-21T08:11:20.755Z,9.60
2024-04-21T08:13:52.276Z,6.10
2024-04-21T08:16:24.107Z,7.20
2024-04-21T08:18:55.011Z,14.50
2024-04-21T08:21:26.837Z,7.30
2024-04-21T08:23:57.266Z,5.00
2024-04-21T08:26:29.025Z,8.10
2024-04-21T08:28:59.444Z,6.20
2024-04-21T08:31:31.570Z,8.90
2024-04-21T08:34:02.143Z,10.40
2024-04-21T08:36:34.003Z,23.10
2024-04-21T08:39:05.800Z,16.60
2024-04-21T08:41:41.095Z,17.20
2024-04-21T08:44:14.630Z,51.30
2024-04-21T08:46:45.122Z,14.80
2024-04-21T08:49:17.426Z,33.70
2024-04-21T08:51:47.921Z,17.90
2024-04-21T08:54:20.002Z,19.70
2024-04-21T08:56:52.214Z,12.10
2024-04-21T08:59:24.947Z,25.40
2024-04-21T09:01:56.308Z,10.90
2024-04-21T09:04:28.793Z,19.30
2024-04-21T09:06:59.343Z,10.10
2024-04-21T09:09:31.663Z,12.10
2024-04-21T09:12:02.282Z,13.60
2024-04-21T09:14:44.492Z,10.90
2024-04-21T09:17:16.570Z,7.30
2024-04-21T09:19:47.074Z,9.20
2024-04-21T09:22:18.757Z,6.60
2024-04-21T09:24:49.394Z,9.90
2024-04-21T09:27:21.020Z,7.50
2024-04-21T09:29:51.445Z,6.80
2024-04-21T09:32:23.138Z,5.40
2024-04-21T09:34:57.112Z,7.10
2024-04-21T09:37:28.688Z,7.20
2024-04-21T09:39:59.597Z,9.40
2024-04-21T09:42:32.627Z,6.80
2024-04-21T09:45:03.078Z,8.10
2024-04-21T09:47:35.098Z,10.80
2024-04-21T09:50:08.920Z,9.60
2024-04-21T09:52:48.441Z,10.40
2024-04-21T09:55:20.535Z,8.80
2024-04-21T09:58:02.151Z,8.80
2024-04-21T10:00:34.554Z,7.80
2024-04-21T10:03:06.264Z,9.20
2024-04-21T10:05:38.377Z,8.30
2024-04-21T10:08:08.832Z,10.00
2024-04-21T10:10:40.586Z,7.50
2024-04-21T10:13:11.110Z,9.80
2024-04-21T10:15:42.954Z,8.10
2024-04-21T10:18:25.016Z,8.70
2024-04-21T10:20:57.622Z,10.30
2024-04-21T10:23:28.261Z,10.50
2024-04-21T10:25:59.927Z,13.00
2024-04-21T10:28:30.704Z,11.20
2024-04-21T10:31:05.551Z,12.80
2024-04-21T10:33:45.122Z,13.90
2024-04-21T10:36:20.962Z,11.50
2024-04-21T10:38:56.868Z,11.60
2024-04-21T10:41:28.476Z,10.60
2024-04-21T10:43:58.721Z,14.30
2024-04-21T10:46:30.660Z,14.40
2024-04-21T10:49:01.324Z,25.00
2024-04-21T10:51:33.913Z,18.60
2024-04-21T10:54:04.597Z,46.20
2024-04-21T10:56:37.637Z,23.90
2024-04-21T10:59:09.140Z,18.30
2024-04-21T11:01:40.814Z,17.60
2024-04-21T11:04:11.353Z,24.00
2024-04-21T11:06:43.076Z,15.20
2024-04-21T11:09:13.922Z,24.90
2024-04-21T11:11:45.472Z,33.30
2024-04-21T11:14:16.214Z,19.20
2024-04-21T11:16:54.055Z,18.80
2024-04-21T11:19:25.800Z,19.80
2024-04-21T11:21:56.526Z,15.10
2024-04-21T11:24:28.349Z,17.30
2024-04-21T11:27:00.036Z,19.90
2024-04-21T11:29:34.530Z,14.20
2024-04-21T11:32:10.389Z,10.90
2024-04-21T11:34:45.380Z,14.80
2024-04-21T11:37:20.239Z,12.20
2024-04-21T11:39:52.094Z,13.00
2024-04-21T11:42:22.738Z,12.50
2024-04-21T11:44:53.874Z,13.50
2024-04-21T11:47:24.574Z,12.90
2024-04-21T11:49:56.478Z,18.50
2024-04-21T11:52:27.049Z,16.80
2024-04-21T11:54:58.905Z,13.30
2024-04-21T11:57:29.604Z,13.70
2024-04-21T12:00:03.230Z,16.50
2024-04-21T12:02:37.523Z,13.30
2024-04-21T12:05:08.267Z,12.40
2024-04-21T12:07:40.215Z,14.40
2024-04-21T12:10:11.076Z,13.10
2024-04-21T12:12:44.029Z,12.50
2024-04-21T12:15:14.874Z,13.60
2024-04-21T12:17:46.744Z,14.30
2024-04-21T12:20:17.250Z,14.20
2024-04-21T12:22:50.649Z,14.40
2024-04-21T12:25:21.451Z,11.30
2024-04-21T12:27:53.637Z,13.50
2024-04-21T12:30:24.293Z,12.70
2024-04-21T12:32:56.575Z,10.40
2024-04-21T12:35:27.099Z,12.10
2024-04-21T12:37:59.045Z,12.90
2024-04-21T12:40:29.492Z,11.40
2024-04-21T12:43:01.373Z,11.10
2024-04-21T12:45:32.079Z,11.70
2024-04-21T12:48:05.410Z,11.40
2024-04-21T12:50:35.981Z,13.30
2024-04-21T12:53:08.789Z,11.90
2024-04-21T12:55:40.170Z,12.90
2024-04-21T12:58:12.456Z,13.80
2024-04-21T13:00:43.130Z,13.30
2024-04-21T13:03:16.016Z,14.70
2024-04-21T13:05:46.634Z,13.20
2024-04-21T13:08:19.187Z,11.10
2024-04-21T13:10:50.108Z,11.70
2024-04-21T13:13:21.937Z,12.40
2024-04-21T13:15:52.851Z,12.30
2024-04-21T13:18:24.837Z,12.00
2024-04-21T13:20:55.435Z,12.60
2024-04-21T13:23:27.307Z,11.80
2024-04-21T13:25:57.828Z,12.20
2024-04-21T13:28:29.794Z,9.30
2024-04-21T13:31:01.011Z,16.20
2024-04-21T13:33:32.844Z,12.30
2024-04-21T13:36:04.035Z,14.70
2024-04-21T13:38:36.314Z,11.70
2024-04-21T13:41:07.038Z,12.70
2024-04-21T13:43:38.917Z,28.90
2024-04-21T13:46:09.488Z,44.80
2024-04-21T13:48:41.286Z,19.60
2024-04-21T13:51:20.363Z,14.60
2024-04-21T13:54:03.534Z,12.20
2024-04-21T13:56:36.640Z,13.20
2024-04-21T13:59:07.569Z,16.50
2024-04-21T14:01:39.459Z,18.90
2024-04-21T14:04:12.098Z,15.10
2024-04-21T14:06:44.075Z,11.10
2024-04-21T14:09:14.510Z,13.50
2024-04-21T14:11:46.160Z,16.50
2024-04-21T14:14:16.788Z,16.00
2024-04-21T14:16:48.905Z,17.00
2024-04-21T14:19:19.915Z,13.10
2024-04-21T14:21:51.443Z,12.40
2024-04-21T14:24:21.966Z,11.40
2024-04-21T14:26:53.937Z,10.60
2024-04-21T14:29:24.454Z,11.30
2024-04-21T14:31:56.207Z,10.30
2024-04-21T14:34:26.662Z,10.60
2024-04-21T14:36:58.431Z,9.80
2024-04-21T14:39:28.825Z,10.00
2024-04-21T14:42:02.109Z,9.30
2024-04-21T14:44:36.550Z,9.00
2024-04-21T14:47:08.770Z,9.30
2024-04-21T14:49:39.473Z,9.80
2024-04-21T14:52:11.281Z,9.30
2024-04-21T14:54:41.825Z,8.00
2024-04-21T14:57:14.710Z,8.90
2024-04-21T14:59:45.235Z,10.40
2024-04-21T15:02:17.266Z,10.20
2024-04-21T15:04:47.848Z,8.30
2024-04-21T15:07:19.899Z,13.30
2024-04-21T15:09:50.320Z,9.60
2024-04-21T15:12:22.290Z,12.50
2024-04-21T15:14:52.710Z,10.40
2024-04-21T15:17:24.693Z,9.90
2024-04-21T15:19:56.050Z,9.50
2024-04-21T15:22:28.896Z,8.70
2024-04-21T15:24:59.560Z,8.20
2024-04-21T15:27:31.393Z,9.00
2024-04-21T15:30:02.466Z,9.80
2024-04-21T15:32:34.216Z,8.80
2024-04-21T15:35:05.152Z,9.50
2024-04-21T15:37:39.800Z,8.60
2024-04-21T15:40:13.830Z,9.70
2024-04-21T15:45:17.816Z,41.50
2024-04-21T15:47:48.500Z,22.20
2024-04-21T15:50:20.584Z,15.60
2024-04-21T15:52:54.105Z,14.20
2024-04-21T15:55:29.162Z,34.10
2024-04-21T15:58:01.360Z,19.90
2024-04-21T16:00:34.770Z,24.00
2024-04-21T16:03:06.603Z,15.70
2024-04-21T16:05:37.382Z,18.80
2024-04-21T16:08:09.451Z,33.80
2024-04-21T16:10:42.511Z,14.50
2024-04-21T16:13:14.637Z,12.90
2024-04-21T16:15:45.877Z,11.80
2024-04-21T16:18:17.696Z,11.80
2024-04-21T16:20:48.345Z,11.40
2024-04-21T16:23:20.318Z,12.40
2024-04-21T16:25:50.938Z,13.20
2024-04-21T16:28:22.772Z,10.30
2024-04-21T16:30:53.409Z,13.50
2024-04-21T16:33:25.837Z,11.50
2024-04-21T16:35:58.437Z,10.10
2024-04-21T16:38:30.610Z,14.10
2024-04-21T16:41:01.285Z,12.30
2024-04-21T16:43:35.041Z,14.40
2024-04-21T16:46:06.249Z,11.90
2024-04-21T16:48:38.450Z,10.80
2024-04-21T16:51:09.565Z,11.80
2024-04-21T16:53:42.069Z,11.60
2024-04-21T16:56:12.728Z,13.10
2024-04-21T16:58:44.930Z,13.20
2024-04-21T17:01:15.889Z,12.80
2024-04-21T17:03:48.449Z,12.80
2024-04-21T17:06:20.308Z,13.20
2024-04-21T17:08:52.398Z,11.10
2024-04-21T17:11:23.300Z,12.30
2024-04-21T17:13:55.351Z,14.10
2024-04-21T17:16:25.791Z,15.30
2024-04-21T17:18:57.572Z,15.40
2024-04-21T17:21:28.066Z,13.70
2024-04-21T17:23:59.812Z,12.50
2024-04-21T17:26:30.246Z,15.30
2024-04-21T17:29:02.165Z,15.30
2024-04-21T17:31:32.565Z,14.30
2024-04-21T17:34:04.311Z,13.20
2024-04-21T17:36:35.336Z,15.30
2024-04-21T17:39:07.272Z,16.80
2024-04-21T17:41:38.322Z,14.80
2024-04-21T17:44:10.087Z,16.20
2024-04-21T17:46:50.676Z,16.70
2024-04-21T17:49:22.596Z,16.00
2024-04-21T17:51:53.029Z,15.30
2024-04-21T17:54:25.302Z,13.90
2024-04-21T17:56:57.731Z,15.10
2024-04-21T17:59:29.946Z,14.50
2024-04-21T18:02:00.359Z,14.80
2024-04-21T18:04:32.014Z,17.30
2024-04-21T18:07:02.730Z,15.90
2024-04-21T18:09:34.626Z,15.90
2024-04-21T18:12:05.539Z,18.30
2024-04-21T18:14:37.318Z,16.10
2024-04-21T18:17:13.984Z,13.50
2024-04-21T18:19:54.129Z,12.90
2024-04-21T18:22:24.594Z,15.50
2024-04-21T18:24:56.321Z,12.90
2024-04-21T18:27:26.871Z,15.40
2024-04-21T18:29:59.009Z,15.30
2024-04-21T18:32:29.635Z,12.60
2024-04-21T18:35:01.509Z,12.40
2024-04-21T18:37:31.963Z,14.50
2024-04-21T18:40:06.489Z,14.80
2024-04-21T18:42:39.439Z,14.70
2024-04-21T18:45:11.049Z,14.10
2024-04-21T18:47:42.871Z,14.20
2024-04-21T18:50:13.383Z,13.90
2024-04-21T18:52:45.176Z,16.20
2024-04-21T18:55:15.876Z,12.70
2024-04-21T18:57:47.629Z,13.80
2024-04-21T19:00:18.482Z,12.60
2024-04-21T19:02:52.629Z,15.10
2024-04-21T19:05:23.223Z,12.10
2024-04-21T19:07:54.961Z,13.00
2024-04-21T19:10:27.801Z,37.80
2024-04-21T19:13:00.264Z,135.60
2024-04-21T19:15:31.161Z,171.80
2024-04-21T19:18:03.474Z,713.60
2024-04-21T19:20:34.469Z,520.70
2024-04-21T19:23:10.116Z,402.60
2024-04-21T19:25:41.888Z,153.90
2024-04-21T19:28:12.320Z,116.30
2024-04-21T19:30:43.957Z,125.90
2024-04-21T19:33:14.608Z,151.30
2024-04-21T19:35:46.354Z,178.00
2024-04-21T19:38:16.874Z,139.50
2024-04-21T19:40:51.592Z,30.60
2024-04-21T19:43:24.744Z,70.30
2024-04-21T19:45:57.885Z,65.00
2024-04-21T19:48:29.792Z,164.50
2024-04-21T19:51:01.190Z,89.30
2024-04-21T19:53:33.159Z,55.30
2024-04-21T19:56:09.039Z,101.80
2024-04-21T19:58:41.609Z,52.90
2024-04-21T20:01:12.578Z,97.40
2024-04-21T20:03:44.967Z,96.10
2024-04-21T20:06:15.523Z,64.30
2024-04-21T20:08:49.164Z,62.10
2024-04-21T20:11:22.287Z,95.90
2024-04-21T20:13:54.180Z,80.20
2024-04-21T20:16:43.512Z,98.40
2024-04-21T20:19:15.552Z,228.00
2024-04-21T20:21:46.240Z,135.70
2024-04-21T20:24:18.004Z,47.10
2024-04-21T20:26:51.008Z,121.40
2024-04-21T20:29:23.971Z,338.60
2024-04-21T20:31:54.393Z,382.10
2024-04-21T20:34:26.449Z,145.20
2024-04-21T20:36:56.991Z,137.10
2024-04-21T20:39:29.571Z,45.50
2024-04-21T20:41:59.884Z,123.90
2024-04-21T20:44:31.950Z,114.00
2024-04-21T20:47:02.479Z,81.00
2024-04-21T20:49:34.679Z,155.80
2024-04-21T20:52:05.588Z,205.20
2024-04-21T20:54:37.453Z,146.90
2024-04-21T20:57:07.780Z,60.10
2024-04-21T20:59:39.530Z,42.40
2024-04-21T21:02:10.080Z,119.60
2024-04-21T21:04:42.007Z,63.90
2024-04-21T21:07:12.785Z,80.00
2024-04-21T21:09:45.037Z,46.40
2024-04-21T21:12:15.655Z,71.40
2024-04-21T21:14:47.299Z,78.60
2024-04-21T21:17:18.410Z,91.30
2024-04-21T21:19:50.214Z,198.00
2024-04-21T21:22:20.769Z,46.40
2024-04-21T21:24:52.503Z,17.60
2024-04-21T21:27:23.122Z,16.40
2024-04-21T21:29:54.682Z,23.30
2024-04-21T21:32:25.183Z,9.40
2024-04-21T21:34:56.965Z,8.70
2024-04-21T21:37:27.521Z,9.60
2024-04-21T21:39:59.347Z,80.90
2024-04-21T21:42:29.888Z,11.60
2024-04-21T21:45:01.551Z,9.90
2024-04-21T21:47:32.160Z,20.40
2024-04-21T21:50:04.355Z,45.30
2024-04-21T21:52:37.690Z,13.70
2024-04-21T21:55:09.601Z,13.00
2024-04-21T21:57:40.297Z,10.50
2024-04-21T22:00:13.401Z,8.50
2024-04-21T22:02:43.857Z,7.50
2024-04-21T22:05:15.690Z,8.70
2024-04-21T22:07:46.219Z,11.00
2024-04-21T22:10:18.310Z,6.80
2024-04-21T22:12:48.919Z,6.10
2024-04-21T22:15:21.803Z,5.30
2024-04-21T22:17:52.356Z,8.30
2024-04-21T22:20:24.192Z,7.00
2024-04-21T22:22:54.618Z,8.20
2024-04-21T22:25:26.529Z,6.90
2024-04-21T22:27:56.898Z,13.60
2024-04-21T22:30:28.552Z,10.20
2024-04-21T22:32:59.332Z,12.40
2024-04-21T22:35:31.254Z,8.90
2024-04-21T22:38:01.608Z,8.40
2024-04-21T22:40:33.364Z,6.10
2024-04-21T22:43:04.430Z,8.50
2024-04-21T22:45:36.134Z,10.80
2024-04-21T22:48:07.276Z,7.20
2024-04-21T22:50:39.035Z,8.90
2024-04-21T22:53:09.871Z,6.80
2024-04-21T22:55:41.678Z,7.20
2024-04-21T22:58:12.296Z,6.40
2024-04-21T23:00:44.941Z,8.70
2024-04-21T23:03:15.370Z,7.20
2024-04-21T23:05:47.309Z,7.00
2024-04-21T23:08:17.751Z,7.30
2024-04-21T23:10:58.364Z,7.50
2024-04-21T23:13:30.420Z,18.30
2024-04-21T23:16:05.442Z,8.00
2024-04-21T23:18:37.333Z,13.70
2024-04-21T23:21:07.902Z,30.10
2024-04-21T23:23:40.581Z,14.00
2024-04-21T23:26:11.007Z,8.80
2024-04-21T23:28:42.904Z,7.60
2024-04-21T23:31:17.153Z,10.90
2024-04-21T23:33:49.324Z,8.20
2024-04-21T23:36:19.980Z,47.00
2024-04-21T23:38:51.938Z,10.00
2024-04-21T23:41:22.371Z,14.40
2024-04-21T23:43:54.627Z,6.60
2024-04-21T23:46:25.216Z,7.50
2024-04-21T23:48:56.931Z,9.00
2024-04-21T23:51:27.457Z,16.40
2024-04-21T23:53:59.122Z,7.70
2024-04-21T23:56:29.632Z,15.60
2024-04-21T23:59:01.607Z,17.20
